Time;durP1;ratioP1;P1;durP2;ratioP2;P2;SDS_P1;SDS_P2;PMS_P1;PMS_P2;Temp;Humidity;BMP_temperature;BMP_pressure;BME280_temperature;BME280_humidity;BME280_pressure;Samples;Min_cycle;Max_cycle;Signal;HPM_P1;HPM_P2
2023/03/26 00:00:08;;;;;;;1.30;0.38;;;8.10;88.70;;;;;;5056809;28;20102;-77
2023/03/26 00:02:33;;;;;;;0.55;0.30;;;8.10;88.40;;;;;;5055410;28;20100;-76
2023/03/26 00:04:59;;;;;;;2.50;0.68;;;8.10;88.00;;;;;;5032730;28;20045;-77
2023/03/26 00:07:26;;;;;;;1.85;0.60;;;8.20;87.90;;;;;;5059936;28;20025;-77
2023/03/26 00:09:52;;;;;;;1.00;0.60;;;8.20;88.30;;;;;;5035464;28;20398;-77
2023/03/26 00:12:18;;;;;;;1.90;0.65;;;8.20;87.50;;;;;;5048136;28;20040;-77
2023/03/26 00:14:45;;;;;;;2.05;0.40;;;8.20;87.40;;;;;;5061705;28;20037;-77
2023/03/26 00:17:10;;;;;;;1.60;0.70;;;8.20;87.40;;;;;;5054313;28;20025;-77
2023/03/26 00:19:36;;;;;;;1.35;0.65;;;8.10;87.50;;;;;;5065940;28;20032;-77
2023/03/26 00:22:02;;;;;;;1.73;0.57;;;8.00;87.60;;;;;;5072722;28;20013;-77
2023/03/26 00:24:29;;;;;;;2.47;0.90;;;7.90;87.90;;;;;;5056922;28;20074;-76
2023/03/26 00:26:55;;;;;;;1.55;0.60;;;7.80;88.10;;;;;;5055411;28;20055;-77
2023/03/26 00:29:26;;;;;;;1.77;0.52;;;7.80;88.50;;;;;;5069514;28;20497;-78
2023/03/26 00:31:52;;;;;;;1.60;0.60;;;7.70;88.70;;;;;;5075338;28;20158;-77
2023/03/26 00:34:17;;;;;;;1.00;0.50;;;7.60;89.00;;;;;;5070386;28;20029;-78
2023/03/26 00:36:45;;;;;;;2.08;0.60;;;7.60;89.30;;;;;;5065033;28;20101;-76
2023/03/26 00:39:12;;;;;;;3.75;0.77;;;7.60;89.40;;;;;;5075733;28;20017;-76
2023/03/26 00:41:41;;;;;;;1.67;0.52;;;7.50;89.50;;;;;;5070043;28;20221;-77
2023/03/26 00:44:08;;;;;;;2.63;0.90;;;7.50;89.70;;;;;;5064623;28;20028;-78
2023/03/26 00:46:35;;;;;;;4.50;0.70;;;7.60;89.90;;;;;;5090133;28;20040;-78
2023/03/26 00:49:02;;;;;;;3.65;0.50;;;7.50;89.90;;;;;;5094982;28;20047;-77
2023/03/26 00:51:28;;;;;;;3.33;0.77;;;7.50;90.00;;;;;;5086486;28;20032;-77
2023/03/26 00:53:55;;;;;;;2.75;0.68;;;7.50;90.00;;;;;;5058360;28;20033;-77
2023/03/26 00:56:21;;;;;;;1.42;0.47;;;7.50;90.00;;;;;;5062382;28;20079;-77
2023/03/26 00:58:48;;;;;;;1.58;0.63;;;7.50;90.10;;;;;;5066169;28;20458;-77
2023/03/26 01:01:19;;;;;;;1.15;0.63;;;7.50;90.20;;;;;;5069855;28;20020;-76
2023/03/26 01:03:45;;;;;;;1.40;0.80;;;7.50;90.10;;;;;;5072342;28;20017;-77
2023/03/26 01:06:18;;;;;;;1.88;0.60;;;7.50;90.10;;;;;;5074064;28;20033;-76
2023/03/26 01:08:47;;;;;;;2.47;1.00;;;7.50;90.10;;;;;;5072744;28;20036;-76
2023/03/26 01:11:34;;;;;;;0.95;0.60;;;7.50;90.00;;;;;;5077640;28;20112;-75
2023/03/26 01:14:06;;;;;;;3.38;0.70;;;7.60;90.10;;;;;;5065550;28;20105;-77
2023/03/26 01:16:43;;;;;;;1.25;0.75;;;7.50;90.00;;;;;;5082067;28;20036;-77
2023/03/26 01:19:32;;;;;;;1.55;0.80;;;7.50;90.00;;;;;;5068196;28;20353;-77
2023/03/26 01:21:59;;;;;;;2.60;0.70;;;7.50;90.00;;;;;;5048467;28;20104;-77
2023/03/26 01:24:25;;;;;;;0.80;0.40;;;7.50;90.10;;;;;;5046512;28;20427;-76
2023/03/26 01:27:10;;;;;;;0.65;0.32;;;7.40;90.20;;;;;;5055860;28;20516;-77
2023/03/26 01:29:45;;;;;;;1.85;0.68;;;7.40;90.20;;;;;;5054994;28;20125;-76
2023/03/26 01:32:47;;;;;;;0.40;0.40;;;7.40;90.40;;;;;;5067169;28;20051;-77
2023/03/26 01:35:22;;;;;;;3.90;1.08;;;7.40;90.40;;;;;;5059645;28;20033;-77
2023/03/26 01:38:09;;;;;;;2.72;0.38;;;7.30;90.50;;;;;;5041283;28;20536;-77
2023/03/26 01:40:48;;;;;;;1.40;0.40;;;7.30;90.60;;;;;;5055186;28;20025;-77
2023/03/26 01:43:31;;;;;;;2.45;0.43;;;7.30;90.70;;;;;;5071787;28;20069;-76
2023/03/26 01:46:02;;;;;;;1.65;0.50;;;7.30;90.80;;;;;;5065173;28;20025;-77
2023/03/26 01:48:37;;;;;;;0.57;0.35;;;7.30;90.90;;;;;;5046875;28;20032;-78
2023/03/26 01:51:04;;;;;;;0.77;0.30;;;7.30;90.90;;;;;;5075047;28;20468;-76
2023/03/26 01:53:32;;;;;;;2.42;0.50;;;7.20;90.90;;;;;;5059802;28;20029;-78
2023/03/26 01:56:16;;;;;;;1.30;0.65;;;7.20;91.00;;;;;;5072967;28;20028;-75
2023/03/26 01:59:07;;;;;;;0.98;0.43;;;7.20;91.10;;;;;;5059762;28;20450;-77
2023/03/26 02:02:00;;;;;;;2.88;0.85;;;7.20;91.10;;;;;;5059835;28;20025;-76
2023/03/26 02:04:25;;;;;;;2.80;0.60;;;7.20;91.20;;;;;;5036352;28;20025;-77
2023/03/26 02:07:27;;;;;;;2.83;0.57;;;7.20;91.20;;;;;;5066596;28;20123;-77
2023/03/26 02:10:00;;;;;;;1.52;0.80;;;7.10;91.40;;;;;;5053423;28;20075;-77
2023/03/26 02:12:27;;;;;;;2.13;0.40;;;7.10;91.40;;;;;;5056362;28;20501;-77
2023/03/26 02:14:53;;;;;;;0.88;0.40;;;7.10;91.50;;;;;;5069609;28;20034;-77
2023/03/26 02:17:22;;;;;;;1.63;0.30;;;7.10;91.80;;;;;;5064782;28;20470;-76
2023/03/26 02:19:50;;;;;;;1.17;0.40;;;7.00;91.70;;;;;;5073784;28;20100;-77
2023/03/26 02:22:16;;;;;;;0.65;0.22;;;7.10;91.70;;;;;;5072095;28;20024;-77
2023/03/26 02:24:43;;;;;;;1.80;0.63;;;7.10;91.70;;;;;;5054464;28;20079;-77
2023/03/26 02:27:11;;;;;;;1.05;0.50;;;7.10;91.70;;;;;;5062047;28;20025;-77
2023/03/26 02:29:38;;;;;;;1.70;0.70;;;7.10;91.70;;;;;;5066087;28;20079;-76
2023/03/26 02:32:05;;;;;;;0.73;0.52;;;7.20;91.70;;;;;;5062767;28;20056;-77
2023/03/26 02:34:31;;;;;;;1.02;0.32;;;7.20;91.70;;;;;;5059900;28;20033;-77
2023/03/26 02:36:57;;;;;;;5.47;1.05;;;7.20;91.60;;;;;;5075496;28;20053;-76
2023/03/26 02:39:23;;;;;;;2.33;0.65;;;7.20;91.60;;;;;;5047986;28;20021;-76
2023/03/26 02:41:52;;;;;;;0.50;0.45;;;7.20;91.60;;;;;;5056602;28;20413;-77
2023/03/26 02:44:18;;;;;;;0.68;0.52;;;7.20;91.60;;;;;;5055231;28;20029;-78
2023/03/26 02:46:43;;;;;;;3.00;0.60;;;7.30;91.60;;;;;;5058272;28;20481;-77
2023/03/26 02:49:09;;;;;;;3.17;0.52;;;7.30;91.60;;;;;;5054292;28;20538;-78
2023/03/26 02:51:36;;;;;;;0.50;0.50;;;7.30;91.60;;;;;;5057768;28;20530;-78
2023/03/26 02:54:02;;;;;;;2.55;0.52;;;7.30;91.60;;;;;;5063875;28;20075;-76
2023/03/26 02:56:28;;;;;;;2.30;0.82;;;7.30;91.60;;;;;;5034905;28;20079;-77
2023/03/26 02:58:54;;;;;;;1.48;0.38;;;7.30;91.60;;;;;;5085459;28;20028;-78
2023/03/26 03:01:21;;;;;;;1.60;0.20;;;7.30;91.60;;;;;;5094582;28;20032;-78
2023/03/26 03:03:47;;;;;;;1.02;0.65;;;7.30;91.60;;;;;;5071706;28;20025;-77
2023/03/26 03:06:17;;;;;;;0.22;0.20;;;7.30;91.60;;;;;;5051678;28;20036;-76
2023/03/26 03:08:47;;;;;;;0.82;0.43;;;7.30;91.60;;;;;;5071422;28;20039;-78
2023/03/26 03:11:15;;;;;;;2.50;0.30;;;7.30;91.60;;;;;;5072724;28;20021;-76
2023/03/26 03:13:41;;;;;;;1.00;0.55;;;7.30;91.60;;;;;;5072199;28;20490;-77
2023/03/26 03:16:08;;;;;;;2.17;0.80;;;7.30;91.60;;;;;;5054379;28;20077;-76
2023/03/26 03:18:37;;;;;;;2.38;1.00;;;7.30;91.70;;;;;;5061959;28;20032;-78
2023/03/26 03:21:04;;;;;;;0.88;0.47;;;7.30;91.70;;;;;;5063070;28;20349;-77
2023/03/26 03:23:30;;;;;;;1.42;0.50;;;7.30;91.80;;;;;;5067832;28;20044;-77
2023/03/26 03:25:57;;;;;;;0.63;0.28;;;7.30;91.80;;;;;;5052216;28;20047;-77
2023/03/26 03:28:24;;;;;;;0.22;0.10;;;7.20;91.80;;;;;;5067569;28;20032;-77
2023/03/26 03:30:52;;;;;;;0.55;0.20;;;7.20;91.90;;;;;;5072484;28;20025;-78
2023/03/26 03:33:21;;;;;;;1.55;0.30;;;7.20;92.00;;;;;;5061825;28;20425;-77
2023/03/26 03:35:48;;;;;;;1.70;0.30;;;7.20;91.90;;;;;;5040389;28;20116;-77
2023/03/26 03:38:15;;;;;;;0.55;0.30;;;7.20;91.90;;;;;;5065813;28;20025;-77
2023/03/26 03:40:41;;;;;;;0.70;0.20;;;7.20;92.00;;;;;;5070125;28;20032;-77
2023/03/26 03:43:07;;;;;;;0.43;0.20;;;7.20;92.00;;;;;;5066970;28;20078;-78
2023/03/26 03:45:33;;;;;;;2.15;0.43;;;7.20;92.00;;;;;;5039881;28;20029;-78
2023/03/26 03:47:58;;;;;;;0.20;0.20;;;7.20;92.00;;;;;;5062974;28;20086;-79
2023/03/26 03:50:25;;;;;;;2.42;0.40;;;7.20;92.00;;;;;;5069659;28;20432;-78
2023/03/26 03:52:51;;;;;;;2.30;0.20;;;7.30;92.00;;;;;;5070966;28;20214;-78
2023/03/26 03:55:17;;;;;;;0.28;0.25;;;7.30;92.10;;;;;;5067159;28;20616;-78
2023/03/26 03:57:43;;;;;;;1.17;0.15;;;7.30;92.10;;;;;;5053464;28;20045;-78
2023/03/26 04:00:10;;;;;;;0.22;0.10;;;7.30;92.00;;;;;;5040855;28;20112;-78
2023/03/26 04:02:36;;;;;;;0.77;0.17;;;7.40;92.00;;;;;;5062895;28;20107;-76
2023/03/26 04:05:04;;;;;;;0.30;0.30;;;7.40;92.00;;;;;;5076288;28;20403;-77
2023/03/26 04:07:31;;;;;;;0.05;0.05;;;7.40;92.00;;;;;;5076095;28;20031;-77
2023/03/26 04:10:01;;;;;;;0.65;0.30;;;7.50;92.00;;;;;;5076291;28;20535;-77
2023/03/26 04:12:27;;;;;;;0.35;0.25;;;7.50;91.90;;;;;;5060966;28;20020;-77
2023/03/26 04:14:54;;;;;;;0.85;0.20;;;7.50;92.10;;;;;;5054822;28;20060;-76
2023/03/26 04:17:22;;;;;;;0.88;0.28;;;7.50;91.80;;;;;;5051271;28;20036;-77
2023/03/26 04:19:49;;;;;;;0.30;0.13;;;7.50;91.90;;;;;;5058840;28;20109;-77
2023/03/26 04:22:18;;;;;;;0.20;0.10;;;7.40;91.90;;;;;;5062067;28;20092;-77
2023/03/26 04:24:44;;;;;;;0.08;0.08;;;7.40;91.90;;;;;;5054123;28;20043;-77
2023/03/26 04:27:19;;;;;;;0.10;0.10;;;7.40;92.00;;;;;;5043108;28;20035;-77
2023/03/26 04:29:48;;;;;;;0.22;0.20;;;7.30;92.40;;;;;;5076360;28;20074;-77
2023/03/26 04:32:28;;;;;;;0.35;0.20;;;7.30;92.20;;;;;;5042623;28;20081;-77
2023/03/26 04:35:02;;;;;;;0.13;0.10;;;7.30;92.30;;;;;;5047631;28;20496;-76
2023/03/26 04:37:33;;;;;;;0.22;0.22;;;7.30;92.40;;;;;;5062365;28;20030;-77
2023/03/26 04:40:09;;;;;;;0.15;0.15;;;7.30;92.50;;;;;;5064605;28;20029;-76
2023/03/26 04:42:36;;;;;;;0.40;0.15;;;7.20;92.50;;;;;;5041439;28;20057;-77
2023/03/26 04:45:05;;;;;;;0.65;0.10;;;7.30;92.60;;;;;;5055475;28;20366;-77
2023/03/26 04:47:35;;;;;;;0.10;0.10;;;7.30;92.70;;;;;;5060444;28;20025;-77
2023/03/26 04:50:05;;;;;;;1.17;0.30;;;7.40;92.80;;;;;;5075769;28;20029;-77
2023/03/26 04:52:31;;;;;;;0.10;0.00;;;7.40;92.70;;;;;;5061967;28;20028;-77
2023/03/26 04:54:57;;;;;;;0.60;0.20;;;7.50;92.60;;;;;;5063973;28;20159;-77
2023/03/26 04:57:27;;;;;;;0.20;0.10;;;7.50;92.60;;;;;;5057766;28;20070;-77
2023/03/26 04:59:53;;;;;;;0.20;0.13;;;7.60;92.50;;;;;;5087316;28;20040;-77
2023/03/26 05:02:19;;;;;;;0.73;0.30;;;7.60;92.40;;;;;;5090642;28;20025;-77
2023/03/26 05:04:45;;;;;;;0.77;0.30;;;7.60;92.30;;;;;;5064496;28;20021;-77
2023/03/26 05:07:15;;;;;;;0.57;0.20;;;7.70;92.30;;;;;;5057472;28;20470;-77
2023/03/26 05:09:41;;;;;;;1.02;0.25;;;7.70;92.20;;;;;;5056603;28;20051;-78
2023/03/26 05:12:07;;;;;;;0.40;0.25;;;7.70;92.10;;;;;;5048275;28;20485;-77
2023/03/26 05:14:32;;;;;;;0.75;0.30;;;7.80;92.00;;;;;;5075972;28;20031;-78
2023/03/26 05:16:59;;;;;;;0.10;0.10;;;7.80;91.90;;;;;;5075388;28;20563;-77
2023/03/26 05:19:26;;;;;;;0.43;0.10;;;7.80;91.90;;;;;;5074862;28;20100;-77
2023/03/26 05:21:51;;;;;;;0.30;0.20;;;7.80;91.80;;;;;;5046343;28;20115;-77
2023/03/26 05:24:18;;;;;;;0.40;0.30;;;7.80;91.80;;;;;;5072157;28;20043;-77
2023/03/26 05:26:44;;;;;;;0.28;0.10;;;7.80;91.80;;;;;;5071348;28;20031;-76
2023/03/26 05:29:16;;;;;;;0.55;0.30;;;7.90;91.80;;;;;;5059644;28;20092;-77
2023/03/26 05:31:43;;;;;;;0.00;0.00;;;7.90;91.70;;;;;;5056563;28;20024;-77
2023/03/26 05:34:09;;;;;;;0.00;0.00;;;7.90;91.70;;;;;;5056154;28;20107;-77
2023/03/26 05:36:35;;;;;;;0.00;0.00;;;8.00;91.70;;;;;;5067356;28;20050;-77
2023/03/26 05:39:02;;;;;;;0.50;0.20;;;8.00;91.60;;;;;;5042687;28;20093;-77
2023/03/26 05:41:27;;;;;;;0.25;0.10;;;8.00;91.50;;;;;;5039660;28;20083;-77
2023/03/26 05:43:53;;;;;;;1.00;0.20;;;8.00;91.40;;;;;;5055747;28;20405;-77
2023/03/26 05:46:20;;;;;;;0.50;0.10;;;8.10;91.40;;;;;;5062088;28;20336;-77
2023/03/26 05:48:46;;;;;;;0.00;0.00;;;8.20;91.30;;;;;;5062770;28;20050;-76
2023/03/26 05:51:14;;;;;;;0.55;0.20;;;8.20;91.20;;;;;;5076205;28;20032;-76
2023/03/26 05:53:40;;;;;;;0.20;0.10;;;8.20;91.10;;;;;;5046299;28;20109;-77
2023/03/26 05:56:06;;;;;;;0.45;0.20;;;8.30;91.00;;;;;;5038355;28;20029;-77
2023/03/26 05:58:34;;;;;;;0.20;0.20;;;8.30;91.00;;;;;;5075660;28;20029;-77
2023/03/26 06:01:07;;;;;;;0.50;0.20;;;8.30;90.90;;;;;;5076441;28;20438;-77
2023/03/26 06:03:34;;;;;;;0.50;0.20;;;8.40;91.10;;;;;;5067264;28;20029;-77
2023/03/26 06:05:59;;;;;;;0.17;0.10;;;8.40;90.80;;;;;;5059733;28;20099;-76
2023/03/26 06:08:25;;;;;;;0.10;0.10;;;8.40;90.60;;;;;;5053769;28;20102;-78
2023/03/26 06:10:58;;;;;;;0.20;0.20;;;8.40;90.50;;;;;;5057035;28;20519;-77
2023/03/26 06:13:24;;;;;;;0.75;0.20;;;8.50;90.50;;;;;;5085693;28;20032;-78
2023/03/26 06:15:49;;;;;;;0.73;0.30;;;8.50;90.40;;;;;;5087108;28;20033;-77
2023/03/26 06:18:16;;;;;;;1.60;0.40;;;8.50;90.40;;;;;;5066656;28;20071;-77
2023/03/26 06:20:42;;;;;;;0.20;0.20;;;8.60;90.30;;;;;;5073832;28;20039;-78
2023/03/26 06:23:08;;;;;;;0.45;0.20;;;8.60;90.20;;;;;;5073499;28;20040;-77
2023/03/26 06:25:35;;;;;;;0.15;0.10;;;8.70;90.10;;;;;;5041994;28;20020;-75
2023/03/26 06:28:01;;;;;;;0.30;0.10;;;8.80;89.70;;;;;;5060767;28;20029;-76
2023/03/26 06:30:26;;;;;;;1.27;0.10;;;8.90;89.50;;;;;;5078103;28;20043;-78
2023/03/26 06:32:52;;;;;;;0.70;0.40;;;9.00;89.00;;;;;;5059721;28;20044;-77
2023/03/26 06:35:17;;;;;;;0.20;0.10;;;9.00;88.50;;;;;;5080241;28;20036;-78
2023/03/26 06:37:43;;;;;;;1.02;0.20;;;9.10;88.30;;;;;;5069627;28;20033;-77
2023/03/26 06:40:09;;;;;;;0.30;0.20;;;9.10;87.90;;;;;;5058540;28;20025;-78
2023/03/26 06:42:35;;;;;;;1.35;0.50;;;9.20;87.70;;;;;;5074606;28;20017;-77
2023/03/26 06:45:01;;;;;;;0.17;0.17;;;9.20;87.50;;;;;;5076737;28;20055;-76
2023/03/26 06:47:26;;;;;;;0.80;0.10;;;9.30;87.30;;;;;;5072836;28;20024;-78
2023/03/26 06:49:52;;;;;;;0.55;0.50;;;9.40;87.30;;;;;;5069548;28;20025;-78
2023/03/26 06:52:18;;;;;;;0.10;0.10;;;9.50;86.80;;;;;;5060757;28;20109;-77
2023/03/26 06:54:43;;;;;;;0.00;0.00;;;9.60;86.40;;;;;;5063945;28;20028;-78
2023/03/26 06:57:09;;;;;;;0.35;0.17;;;9.60;85.90;;;;;;5052303;28;20036;-78
2023/03/26 06:59:35;;;;;;;0.73;0.20;;;9.70;85.90;;;;;;5061936;28;20037;-77
2023/03/26 07:02:00;;;;;;;1.85;0.30;;;9.70;85.70;;;;;;5062255;28;20080;-78
2023/03/26 07:04:26;;;;;;;0.95;0.30;;;9.70;85.00;;;;;;5053676;28;20466;-77
2023/03/26 07:06:52;;;;;;;0.25;0.20;;;9.80;84.70;;;;;;5070023;28;20037;-77
2023/03/26 07:09:17;;;;;;;0.75;0.40;;;9.80;84.30;;;;;;5053542;28;20028;-78
2023/03/26 07:11:43;;;;;;;1.45;0.60;;;9.80;84.00;;;;;;5054275;28;20032;-77
2023/03/26 07:14:09;;;;;;;2.42;0.40;;;9.80;84.00;;;;;;5052535;28;20449;-78
2023/03/26 07:16:34;;;;;;;2.05;0.60;;;9.80;83.80;;;;;;5053959;28;20033;-77
2023/03/26 07:19:00;;;;;;;1.42;0.45;;;9.80;83.90;;;;;;5065285;28;20128;-78
2023/03/26 07:21:26;;;;;;;0.80;0.40;;;9.70;84.10;;;;;;5054960;28;20033;-77
2023/03/26 07:23:52;;;;;;;1.80;0.55;;;9.80;84.80;;;;;;5061253;28;20036;-77
2023/03/26 07:26:25;;;;;;;1.92;0.63;;;9.80;85.20;;;;;;5047915;28;20032;-79
2023/03/26 07:29:21;;;;;;;0.70;0.60;;;9.70;85.90;;;;;;5059074;28;20017;-79
2023/03/26 07:32:01;;;;;;;2.15;0.60;;;9.70;86.60;;;;;;5071214;28;20070;-77
2023/03/26 07:34:37;;;;;;;1.58;0.60;;;9.70;87.40;;;;;;5053182;28;20025;-78
2023/03/26 07:37:12;;;;;;;0.77;0.45;;;9.60;88.00;;;;;;5065694;28;20358;-78
2023/03/26 07:39:52;;;;;;;1.33;0.43;;;9.60;88.70;;;;;;5054216;28;20362;-77
2023/03/26 07:42:34;;;;;;;0.80;0.30;;;9.60;89.40;;;;;;5054660;28;20116;-78
2023/03/26 07:45:32;;;;;;;1.80;0.65;;;9.50;89.80;;;;;;5055279;28;20021;-78
2023/03/26 07:47:59;;;;;;;2.25;1.33;;;9.40;90.20;;;;;;5041910;28;20029;-77
2023/03/26 07:50:25;;;;;;;0.90;0.90;;;9.30;90.40;;;;;;5057987;28;20044;-77
2023/03/26 07:52:51;;;;;;;1.25;0.93;;;9.10;90.70;;;;;;5069492;28;20033;-77
2023/03/26 07:55:18;;;;;;;2.33;1.05;;;9.10;91.00;;;;;;5065134;28;20107;-77
2023/03/26 07:58:13;;;;;;;1.67;0.93;;;9.00;91.30;;;;;;5052962;28;20061;-78
2023/03/26 08:00:43;;;;;;;1.15;0.75;;;9.10;91.70;;;;;;5072797;28;20032;-78
2023/03/26 08:03:19;;;;;;;2.53;0.85;;;9.20;91.90;;;;;;5067700;28;20094;-78
2023/03/26 08:05:56;;;;;;;0.88;0.65;;;9.30;91.70;;;;;;5073237;28;20037;-78
2023/03/26 08:08:51;;;;;;;0.52;0.40;;;9.40;91.40;;;;;;5076648;28;20074;-77
2023/03/26 08:11:33;;;;;;;0.73;0.50;;;9.50;91.60;;;;;;5068197;28;20029;-77
2023/03/26 08:14:36;;;;;;;0.20;0.20;;;9.70;91.70;;;;;;5062086;28;20036;-77
2023/03/26 08:17:22;;;;;;;0.52;0.30;;;9.80;91.40;;;;;;5064849;28;20107;-77
2023/03/26 08:20:07;;;;;;;0.20;0.20;;;9.90;90.90;;;;;;5064669;28;20098;-77
2023/03/26 08:22:39;;;;;;;0.63;0.30;;;9.90;90.80;;;;;;5076910;28;20118;-77
2023/03/26 08:25:31;;;;;;;0.20;0.20;;;10.00;90.60;;;;;;5071244;28;20035;-78
2023/03/26 08:28:22;;;;;;;0.20;0.20;;;10.00;90.40;;;;;;5073528;28;20028;-78
2023/03/26 08:30:47;;;;;;;0.10;0.10;;;10.10;90.30;;;;;;5070989;28;20024;-78
2023/03/26 08:33:19;;;;;;;0.17;0.17;;;10.00;90.20;;;;;;5041824;28;20045;-77
2023/03/26 08:35:46;;;;;;;0.70;0.30;;;10.10;90.00;;;;;;5070970;28;20044;-77
2023/03/26 08:38:14;;;;;;;0.77;0.20;;;10.00;89.80;;;;;;5068028;28;20434;-77
2023/03/26 08:41:10;;;;;;;0.63;0.20;;;10.00;90.00;;;;;;5052795;28;20086;-79
2023/03/26 08:44:13;;;;;;;0.20;0.10;;;10.00;90.30;;;;;;5056195;28;20027;-78
2023/03/26 08:47:12;;;;;;;2.08;0.63;;;10.20;90.00;;;;;;5055625;28;20040;-78
2023/03/26 08:50:02;;;;;;;2.17;0.40;;;10.40;89.40;;;;;;5064117;28;20073;-78
2023/03/26 08:53:09;;;;;;;0.30;0.25;;;10.50;88.80;;;;;;5072601;28;20077;-78
2023/03/26 08:55:56;;;;;;;0.50;0.20;;;10.60;88.80;;;;;;5067586;28;20474;-78
2023/03/26 08:58:41;;;;;;;2.10;0.50;;;10.70;88.10;;;;;;5079205;28;20035;-77
2023/03/26 09:01:21;;;;;;;0.50;0.30;;;10.80;87.30;;;;;;5066196;28;20033;-79
2023/03/26 09:04:26;;;;;;;1.73;0.50;;;10.70;87.20;;;;;;5073562;28;20025;-78
2023/03/26 09:06:55;;;;;;;1.00;0.40;;;10.70;87.50;;;;;;5055405;28;20040;-78
2023/03/26 09:09:35;;;;;;;0.82;0.38;;;10.60;87.20;;;;;;5063673;28;20449;-78
2023/03/26 09:12:32;;;;;;;0.55;0.40;;;10.60;87.40;;;;;;5076090;28;20028;-78
2023/03/26 09:15:22;;;;;;;0.50;0.40;;;10.50;87.20;;;;;;5074764;28;20036;-79
2023/03/26 09:17:51;;;;;;;0.80;0.50;;;10.30;87.20;;;;;;5057537;28;20064;-78
2023/03/26 09:20:40;;;;;;;0.88;0.38;;;10.10;87.80;;;;;;5077965;28;20024;-79
2023/03/26 09:23:36;;;;;;;1.02;0.35;;;10.00;88.20;;;;;;5074664;28;20029;-79
2023/03/26 09:26:22;;;;;;;0.32;0.30;;;10.00;88.90;;;;;;5050277;28;20102;-77
2023/03/26 09:29:13;;;;;;;3.13;1.05;;;9.90;89.20;;;;;;5071690;28;20020;-79
2023/03/26 09:32:18;;;;;;;0.68;0.40;;;9.90;89.70;;;;;;5064645;28;20016;-80
2023/03/26 09:35:02;;;;;;;1.17;0.68;;;9.90;90.20;;;;;;5071020;28;20024;-78
2023/03/26 09:37:45;;;;;;;0.20;0.20;;;10.00;90.20;;;;;;5053723;28;20029;-80
2023/03/26 09:40:17;;;;;;;0.95;0.47;;;10.00;90.20;;;;;;5060715;28;20087;-79
2023/03/26 09:42:44;;;;;;;;;;;10.00;90.20;;;;;;5089150;28;20120;-80
2023/03/26 09:45:20;;;;;;;0.30;0.30;;;10.00;90.20;;;;;;5085460;28;19924;-78
2023/03/26 09:48:35;;;;;;;1.10;0.40;;;9.80;90.30;;;;;;5085895;28;20059;-81
2023/03/26 09:51:28;;;;;;;0.82;0.40;;;9.80;90.60;;;;;;5066089;28;20280;-79
2023/03/26 09:54:12;;;;;;;;;;;9.60;90.90;;;;;;5070941;28;20013;-79
2023/03/26 09:56:57;;;;;;;1.30;0.47;;;9.70;91.40;;;;;;5062280;28;19905;-79
2023/03/26 09:59:56;;;;;;;0.38;0.30;;;9.60;91.70;;;;;;5061809;28;20025;-79
2023/03/26 10:02:24;;;;;;;1.00;0.40;;;9.70;92.00;;;;;;5080536;28;20067;-79
2023/03/26 10:04:53;;;;;;;1.35;0.40;;;9.60;92.10;;;;;;5063857;28;20024;-79
2023/03/26 10:07:46;;;;;;;0.73;0.30;;;9.60;92.50;;;;;;5080871;28;20071;-79
2023/03/26 10:10:37;;;;;;;0.95;0.40;;;9.70;93.00;;;;;;5045746;28;20029;-80
2023/03/26 10:13:33;;;;;;;0.82;0.60;;;9.90;93.00;;;;;;5081876;28;20032;-80
2023/03/26 10:16:23;;;;;;;0.70;0.35;;;10.10;92.70;;;;;;5058616;28;20067;-80
2023/03/26 10:18:55;;;;;;;1.63;0.60;;;10.20;92.30;;;;;;5059555;28;20016;-80
2023/03/26 10:21:41;;;;;;;1.88;0.40;;;10.20;92.30;;;;;;5065661;28;20066;-79
2023/03/26 10:24:22;;;;;;;0.55;0.45;;;10.00;92.40;;;;;;5088808;28;20078;-80
2023/03/26 10:27:19;;;;;;;0.60;0.50;;;9.90;92.50;;;;;;5069436;28;20043;-79
2023/03/26 10:30:29;;;;;;;1.95;0.60;;;9.70;92.60;;;;;;5082962;28;20025;-79
2023/03/26 10:33:21;;;;;;;0.90;0.63;;;9.70;92.90;;;;;;5054690;28;20016;-78
2023/03/26 10:36:25;;;;;;;0.43;0.40;;;9.70;92.90;;;;;;5077790;28;20013;-79
2023/03/26 10:39:25;;;;;;;0.65;0.50;;;9.70;93.10;;;;;;5059211;28;20031;-80
2023/03/26 10:42:03;;;;;;;0.57;0.55;;;9.70;93.20;;;;;;5065974;28;20024;-79
2023/03/26 10:44:59;;;;;;;1.73;0.95;;;9.70;93.30;;;;;;5089040;28;20108;-79
2023/03/26 10:47:31;;;;;;;1.63;0.73;;;9.70;93.30;;;;;;5088509;28;20030;-79
2023/03/26 10:50:14;;;;;;;1.70;0.55;;;9.60;93.60;;;;;;5074630;28;20093;-79
2023/03/26 10:52:48;;;;;;;2.55;0.80;;;9.50;93.90;;;;;;5079170;28;20020;-80
2023/03/26 10:55:18;;;;;;;3.92;0.90;;;9.50;94.20;;;;;;5067074;28;20044;-79
2023/03/26 10:57:56;;;;;;;3.80;1.00;;;9.40;94.50;;;;;;5067179;28;20084;-78
2023/03/26 11:00:25;;;;;;;2.03;1.08;;;9.30;95.10;;;;;;5068845;28;20083;-79
2023/03/26 11:03:09;;;;;;;1.33;0.65;;;9.30;95.80;;;;;;5071537;28;20017;-79
2023/03/26 11:05:59;;;;;;;3.78;1.40;;;9.30;96.20;;;;;;5068427;28;20032;-78
2023/03/26 11:08:42;;;;;;;1.25;0.40;;;9.50;96.20;;;;;;5065058;28;20060;-79
2023/03/26 11:11:34;;;;;;;1.38;0.55;;;9.50;96.20;;;;;;5056686;28;20029;-78
2023/03/26 11:14:18;;;;;;;1.50;0.55;;;9.50;96.20;;;;;;5077676;28;20028;-79
2023/03/26 11:17:14;;;;;;;0.77;0.55;;;9.50;96.40;;;;;;5058437;28;20059;-78
2023/03/26 11:19:49;;;;;;;0.57;0.55;;;9.60;96.30;;;;;;5059782;28;20082;-78
2023/03/26 11:22:22;;;;;;;0.70;0.57;;;9.70;96.10;;;;;;5058642;28;20207;-81
2023/03/26 11:25:12;;;;;;;1.98;0.65;;;9.80;95.90;;;;;;5069369;28;20319;-80
2023/03/26 11:27:56;;;;;;;1.80;0.90;;;10.00;95.60;;;;;;5081210;28;20086;-78
2023/03/26 11:30:43;;;;;;;0.63;0.40;;;10.20;95.20;;;;;;5070201;28;20082;-79
2023/03/26 11:33:21;;;;;;;1.55;0.60;;;10.30;95.00;;;;;;5057397;28;20032;-78
2023/03/26 11:35:50;;;;;;;1.35;0.50;;;10.30;94.80;;;;;;5074623;28;20016;-79
2023/03/26 11:38:22;;;;;;;0.73;0.45;;;10.30;94.90;;;;;;5064502;28;20032;-79
2023/03/26 11:40:52;;;;;;;0.60;0.60;;;10.40;94.80;;;;;;5066156;28;20029;-81
2023/03/26 11:43:25;;;;;;;1.77;0.60;;;10.50;94.10;;;;;;5045647;28;20040;-80
2023/03/26 11:45:52;;;;;;;2.55;0.40;;;10.40;93.90;;;;;;5069318;28;20017;-80
2023/03/26 11:48:32;;;;;;;1.17;0.60;;;10.30;93.30;;;;;;5083104;28;20088;-78
2023/03/26 11:51:06;;;;;;;1.20;0.30;;;10.00;93.20;;;;;;5074860;28;20041;-80
2023/03/26 11:53:37;;;;;;;1.13;0.40;;;9.70;93.80;;;;;;5070791;28;20052;-77
2023/03/26 11:56:06;;;;;;;1.52;0.38;;;9.50;94.60;;;;;;5085526;28;20121;-81
2023/03/26 11:59:07;;;;;;;0.30;0.30;;;9.40;95.30;;;;;;5048631;28;20047;-79
2023/03/26 12:02:15;;;;;;;1.05;0.60;;;9.50;95.80;;;;;;5066701;28;20047;-80
2023/03/26 12:04:42;;;;;;;1.23;0.40;;;9.80;95.70;;;;;;5049078;28;20017;-78
2023/03/26 12:07:21;;;;;;;0.68;0.40;;;10.00;95.80;;;;;;5082933;28;20036;-80
2023/03/26 12:09:58;;;;;;;0.77;0.40;;;10.20;95.10;;;;;;5078293;28;20153;-80
2023/03/26 12:12:35;;;;;;;0.47;0.47;;;10.30;94.70;;;;;;5089010;28;20021;-80
2023/03/26 12:15:01;;;;;;;0.98;0.80;;;10.30;94.60;;;;;;5062777;28;20382;-79
2023/03/26 12:17:33;;;;;;;0.40;0.40;;;10.30;94.40;;;;;;5082184;28;20100;-78
2023/03/26 12:20:00;;;;;;;0.57;0.40;;;10.60;94.10;;;;;;5061039;28;20025;-79
2023/03/26 12:22:37;;;;;;;1.02;0.60;;;10.80;93.60;;;;;;5057857;28;20039;-79
2023/03/26 12:25:17;;;;;;;1.20;0.52;;;11.10;93.00;;;;;;5067998;28;20422;-80
2023/03/26 12:28:12;;;;;;;3.13;0.93;;;11.40;92.30;;;;;;5045561;28;20143;-79
2023/03/26 12:30:40;;;;;;;1.27;0.47;;;11.60;91.60;;;;;;5057620;28;20056;-79
2023/03/26 12:33:16;;;;;;;1.15;0.50;;;11.70;91.10;;;;;;5053646;28;20053;-80
2023/03/26 12:35:43;;;;;;;0.60;0.25;;;11.80;90.70;;;;;;5066012;28;20108;-78
2023/03/26 12:38:36;;;;;;;0.45;0.45;;;11.80;90.80;;;;;;5079031;28;20089;-79
2023/03/26 12:41:11;;;;;;;0.38;0.30;;;11.80;90.40;;;;;;5061856;28;20136;-79
2023/03/26 12:43:47;;;;;;;0.77;0.50;;;11.80;90.30;;;;;;5056955;28;20029;-79
2023/03/26 12:46:32;;;;;;;0.68;0.40;;;11.60;90.40;;;;;;5077236;28;20085;-81
2023/03/26 12:49:01;;;;;;;1.42;1.30;;;11.50;90.90;;;;;;5052719;28;20108;-77
2023/03/26 12:51:45;;;;;;;1.55;0.60;;;11.50;90.90;;;;;;5059576;28;20039;-78
2023/03/26 12:54:14;;;;;;;0.70;0.65;;;11.50;90.80;;;;;;5045889;28;20464;-79
2023/03/26 12:57:04;;;;;;;1.35;0.80;;;11.60;90.60;;;;;;5057619;28;20032;-78
2023/03/26 12:59:49;;;;;;;1.35;0.90;;;11.60;90.60;;;;;;5060451;28;20079;-78
2023/03/26 13:02:53;;;;;;;0.45;0.45;;;11.60;90.40;;;;;;5063462;28;20102;-78
2023/03/26 13:05:57;;;;;;;3.17;1.40;;;11.60;90.40;;;;;;5074933;28;20024;-79
2023/03/26 13:08:38;;;;;;;1.33;1.08;;;11.60;90.00;;;;;;5090510;28;20012;-80
2023/03/26 13:11:46;;;;;;;2.72;2.00;;;11.60;90.00;;;;;;5087971;28;20016;-78
2023/03/26 13:14:27;;;;;;;2.35;1.73;;;11.50;89.00;;;;;;5070094;28;20289;-81
2023/03/26 13:17:02;;;;;;;1.60;1.23;;;11.40;89.40;;;;;;5090154;28;20059;-81
2023/03/26 13:19:39;;;;;;;2.40;1.20;;;11.40;89.60;;;;;;5082616;28;20045;-80
2023/03/26 13:22:13;;;;;;;1.33;1.23;;;11.30;89.00;;;;;;5079946;28;20059;-80
2023/03/26 13:24:48;;;;;;;3.53;2.35;;;11.30;89.20;;;;;;5054846;28;20048;-79
2023/03/26 13:27:25;;;;;;;1.27;1.00;;;11.30;89.50;;;;;;5077227;28;20039;-79
2023/03/26 13:29:58;;;;;;;1.60;0.70;;;11.20;89.80;;;;;;5081476;28;20204;-78
2023/03/26 13:32:43;;;;;;;0.98;0.68;;;11.20;89.50;;;;;;5079652;28;20029;-79